Aérodrome :
LOGIN :

S'inscrire | Disclaimer

   EN    FR    IT 

 










Légende :    VFR   VFR Marginal   IFR   IFR Intensif   IFR Très Intensif
Visi : 
Plafond : 
>= 8 km
>= 3000ft
5 à 8 km
1000 à 3000 ft
1500m à 5 km
500 à 1000 ft
800 à 1500m
200 à 500 ft
< 800m
< 200 ft
Symboles :   Orages  Brouillard  Fortes neiges  Fortes précipitations  Vent > 20 kt
SIGMETs :   Divers  Orages  Givrage  Turbulence  Onde Orograph.  Cendres Volcan.







- Altitude de l'aérodrome : 202 ft
- Code IATA : LGW
- Voir les cartes d'approche


EGKK - London Gatwick

DERNIER METAR :
  • 200720Z 22005KT 9999 BKN029 09/09 Q1017

METARs EXPIRÉS :
  • 200650Z 20003KT 9999 FEW015 BKN030 08/08 Q1017
  • 200620Z 20003KT 5000 -RA FEW005 BKN026 06/06 Q1018
  • 200550Z VRB02KT 5000 -RADZ SCT004 BKN028 06/05 Q1018 REDZ
  • 200520Z VRB03KT 8000 FEW005 SCT012 05/05 Q1018
  • 200450Z VRB01KT 8000 FEW007 BKN035 05/04 Q1018

TAF AMD TAF EGKK
Valide du 20 à 06h jusqu'au 21 à 12h UTC


200540Z 2006/2112 24008KT 9999 BKN035
TEMPO 2006/2007 4000 RADZ BKN004
PROB40
TEMPO 2007/2014 8000 -RADZ BKN012
PROB30
TEMPO 2009/2017 25015G25KT
BECMG 2014/2017 BKN012
TEMPO 2014/2103 8000 -RA
PROB40
TEMPO 2019/2103 4000 RADZ BKN006
BECMG 2103/2106 SCT025
Pas de NOTAMs connus pour ce terrain.



MET'MAP, la Météo Aéronautique d'un coup d'oeil ! - Copyright ORBIFLY Décembre 2007 - Disclaimer

ORBIFLY MET'MAP TEAM :

Programmation & Développement : Alexandra Zaïnal
Conception & Développement : Baudouin d'Aumeries
Co-Programmation & Développement : Marc-Olivier Méhu
Soutien technique & logistique : Manuel Goepfert

Contact : metmap@orbifly.com




SOURCES & CREDITS :

   NOAA